sensor_id;sensor_type;location;lat;lon;timestamp;pressure;altitude;pressure_sealevel;temperature;humidity
52693;BME280;68218;51.012;-1.648;2023-07-13T00:01:18;100590.78;;;13.38;100.00
52693;BME280;68218;51.012;-1.648;2023-07-13T00:03:44;100591.91;;;13.37;100.00
52693;BME280;68218;51.012;-1.648;2023-07-13T00:06:09;100594.59;;;13.37;100.00
52693;BME280;68218;51.012;-1.648;2023-07-13T00:08:35;100589.44;;;13.30;100.00
52693;BME280;68218;51.012;-1.648;2023-07-13T00:11:02;100583.47;;;13.23;100.00
52693;BME280;68218;51.012;-1.648;2023-07-13T00:13:28;100589.69;;;13.29;100.00
52693;BME280;68218;51.012;-1.648;2023-07-13T00:15:55;100587.78;;;13.29;100.00
52693;BME280;68218;51.012;-1.648;2023-07-13T00:18:21;100588.63;;;13.25;100.00
52693;BME280;68218;51.012;-1.648;2023-07-13T00:20:47;100590.50;;;13.24;100.00
52693;BME280;68218;51.012;-1.648;2023-07-13T00:23:13;100588.06;;;13.28;100.00
52693;BME280;68218;51.012;-1.648;2023-07-13T00:25:38;100585.66;;;13.26;100.00
52693;BME280;68218;51.012;-1.648;2023-07-13T00:28:04;100583.78;;;13.32;100.00
52693;BME280;68218;51.012;-1.648;2023-07-13T00:30:29;100584.84;;;13.36;100.00
52693;BME280;68218;51.012;-1.648;2023-07-13T00:32:55;100582.97;;;13.42;100.00
52693;BME280;68218;51.012;-1.648;2023-07-13T00:35:20;100588.09;;;13.43;100.00
52693;BME280;68218;51.012;-1.648;2023-07-13T00:37:46;100577.53;;;13.47;100.00
52693;BME280;68218;51.012;-1.648;2023-07-13T00:40:13;100579.16;;;13.48;100.00
52693;BME280;68218;51.012;-1.648;2023-07-13T00:42:39;100576.16;;;13.55;100.00
52693;BME280;68218;51.012;-1.648;2023-07-13T00:47:36;100576.41;;;13.68;100.00
52693;BME280;68218;51.012;-1.648;2023-07-13T00:50:02;100573.16;;;13.66;100.00
52693;BME280;68218;51.012;-1.648;2023-07-13T00:52:29;100571.78;;;13.69;100.00
52693;BME280;68218;51.012;-1.648;2023-07-13T00:54:56;100562.84;;;13.68;100.00
52693;BME280;68218;51.012;-1.648;2023-07-13T00:57:21;100573.94;;;13.77;100.00
52693;BME280;68218;51.012;-1.648;2023-07-13T00:59:50;100567.97;;;13.80;100.00
52693;BME280;68218;51.012;-1.648;2023-07-13T01:02:17;100572.06;;;13.78;100.00
52693;BME280;68218;51.012;-1.648;2023-07-13T01:04:43;100568.50;;;13.77;100.00
52693;BME280;68218;51.012;-1.648;2023-07-13T01:07:10;100571.22;;;13.72;100.00
52693;BME280;68218;51.012;-1.648;2023-07-13T01:09:37;100571.50;;;13.65;100.00
52693;BME280;68218;51.012;-1.648;2023-07-13T01:12:02;100570.97;;;13.63;100.00
52693;BME280;68218;51.012;-1.648;2023-07-13T01:14:28;100574.00;;;13.46;100.00
52693;BME280;68218;51.012;-1.648;2023-07-13T01:16:54;100580.78;;;13.54;100.00
52693;BME280;68218;51.012;-1.648;2023-07-13T01:19:35;100582.97;;;13.42;100.00
52693;BME280;68218;51.012;-1.648;2023-07-13T01:22:05;100574.28;;;13.40;100.00
52693;BME280;68218;51.012;-1.648;2023-07-13T01:24:35;100573.47;;;13.39;100.00
52693;BME280;68218;51.012;-1.648;2023-07-13T01:27:01;100572.13;;;13.37;100.00
52693;BME280;68218;51.012;-1.648;2023-07-13T01:29:26;100567.22;;;13.28;100.00
52693;BME280;68218;51.012;-1.648;2023-07-13T01:31:52;100573.19;;;13.30;100.00
52693;BME280;68218;51.012;-1.648;2023-07-13T01:34:17;100572.94;;;13.32;100.00
52693;BME280;68218;51.012;-1.648;2023-07-13T01:36:43;100573.47;;;13.34;100.00
52693;BME280;68218;51.012;-1.648;2023-07-13T01:39:08;100572.94;;;13.32;100.00
52693;BME280;68218;51.012;-1.648;2023-07-13T01:41:33;100564.53;;;13.34;100.00
52693;BME280;68218;51.012;-1.648;2023-07-13T01:43:59;100564.25;;;13.20;100.00
52693;BME280;68218;51.012;-1.648;2023-07-13T01:46:24;100566.41;;;13.23;100.00
52693;BME280;68218;51.012;-1.648;2023-07-13T01:48:51;100554.75;;;13.17;100.00
52693;BME280;68218;51.012;-1.648;2023-07-13T01:51:18;100569.41;;;13.21;100.00
52693;BME280;68218;51.012;-1.648;2023-07-13T01:53:43;100570.19;;;13.27;100.00
52693;BME280;68218;51.012;-1.648;2023-07-13T01:56:08;100572.66;;;13.23;100.00
52693;BME280;68218;51.012;-1.648;2023-07-13T01:58:34;100572.13;;;13.16;100.00
52693;BME280;68218;51.012;-1.648;2023-07-13T02:00:59;100572.66;;;13.18;100.00
52693;BME280;68218;51.012;-1.648;2023-07-13T02:03:25;100569.09;;;13.18;100.00
52693;BME280;68218;51.012;-1.648;2023-07-13T02:05:50;100560.19;;;13.07;100.00
52693;BME280;68218;51.012;-1.648;2023-07-13T02:08:15;100572.66;;;13.13;100.00
52693;BME280;68218;51.012;-1.648;2023-07-13T02:10:41;100571.00;;;13.17;100.00
52693;BME280;68218;51.012;-1.648;2023-07-13T02:13:07;100574.00;;;13.10;100.00
52693;BME280;68218;51.012;-1.648;2023-07-13T02:15:32;100565.06;;;13.10;100.00
52693;BME280;68218;51.012;-1.648;2023-07-13T02:17:58;100555.88;;;13.06;100.00
52693;BME280;68218;51.012;-1.648;2023-07-13T02:20:24;100559.66;;;13.10;100.00
52693;BME280;68218;51.012;-1.648;2023-07-13T02:22:50;100558.31;;;13.02;100.00
52693;BME280;68218;51.012;-1.648;2023-07-13T02:25:15;100564.00;;;13.01;100.00
52693;BME280;68218;51.012;-1.648;2023-07-13T02:27:41;100559.66;;;13.00;100.00
52693;BME280;68218;51.012;-1.648;2023-07-13T02:30:07;100562.09;;;12.96;100.00
52693;BME280;68218;51.012;-1.648;2023-07-13T02:32:32;100558.31;;;12.92;100.00
52693;BME280;68218;51.012;-1.648;2023-07-13T02:34:59;100562.09;;;12.91;100.00
52693;BME280;68218;51.012;-1.648;2023-07-13T02:37:24;100567.78;;;12.89;100.00
52693;BME280;68218;51.012;-1.648;2023-07-13T02:39:50;100556.41;;;12.92;100.00
52693;BME280;68218;51.012;-1.648;2023-07-13T02:42:15;100559.13;;;12.92;100.00
52693;BME280;68218;51.012;-1.648;2023-07-13T02:44:41;100560.44;;;12.90;100.00
52693;BME280;68218;51.012;-1.648;2023-07-13T02:47:06;100567.75;;;12.84;100.00
52693;BME280;68218;51.012;-1.648;2023-07-13T02:49:32;100550.97;;;12.77;100.00
52693;BME280;68218;51.012;-1.648;2023-07-13T02:51:57;100561.28;;;12.80;100.00
52693;BME280;68218;51.012;-1.648;2023-07-13T02:54:23;100569.13;;;12.77;100.00
52693;BME280;68218;51.012;-1.648;2023-07-13T02:56:48;100562.34;;;12.74;100.00
52693;BME280;68218;51.012;-1.648;2023-07-13T02:59:14;100568.56;;;12.74;100.00
52693;BME280;68218;51.012;-1.648;2023-07-13T03:01:39;100569.91;;;12.72;100.00
52693;BME280;68218;51.012;-1.648;2023-07-13T03:04:06;100572.38;;;12.73;100.00
52693;BME280;68218;51.012;-1.648;2023-07-13T03:06:32;100578.31;;;12.76;100.00
52693;BME280;68218;51.012;-1.648;2023-07-13T03:08:58;100572.91;;;12.70;100.00
52693;BME280;68218;51.012;-1.648;2023-07-13T03:11:23;100566.69;;;12.70;100.00
52693;BME280;68218;51.012;-1.648;2023-07-13T03:13:49;100571.81;;;12.66;100.00
52693;BME280;68218;51.012;-1.648;2023-07-13T03:16:15;100568.53;;;12.69;100.00
52693;BME280;68218;51.012;-1.648;2023-07-13T03:18:41;100571.53;;;12.73;100.00
52693;BME280;68218;51.012;-1.648;2023-07-13T03:21:07;100564.75;;;12.65;100.00
52693;BME280;68218;51.012;-1.648;2023-07-13T03:23:33;100572.34;;;12.68;100.00
52693;BME280;68218;51.012;-1.648;2023-07-13T03:26:08;100571.81;;;12.66;100.00
52693;BME280;68218;51.012;-1.648;2023-07-13T03:28:34;100579.38;;;12.64;100.00
52693;BME280;68218;51.012;-1.648;2023-07-13T03:31:04;100576.91;;;12.63;100.00
52693;BME280;68218;51.012;-1.648;2023-07-13T03:33:29;100577.50;;;12.65;100.00
52693;BME280;68218;51.012;-1.648;2023-07-13T03:35:55;100583.19;;;12.68;100.00
52693;BME280;68218;51.012;-1.648;2023-07-13T03:38:21;100576.91;;;12.63;100.00
52693;BME280;68218;51.012;-1.648;2023-07-13T03:40:46;100578.56;;;12.64;100.00
52693;BME280;68218;51.012;-1.648;2023-07-13T03:43:12;100577.47;;;12.60;100.00
52693;BME280;68218;51.012;-1.648;2023-07-13T03:45:38;100581.00;;;12.60;100.00
52693;BME280;68218;51.012;-1.648;2023-07-13T03:48:04;100570.97;;;12.55;100.00
52693;BME280;68218;51.012;-1.648;2023-07-13T03:50:30;100573.94;;;12.54;100.00
52693;BME280;68218;51.012;-1.648;2023-07-13T03:52:57;100566.63;;;12.49;100.00
52693;BME280;68218;51.012;-1.648;2023-07-13T03:55:22;100574.19;;;12.52;100.00
52693;BME280;68218;51.012;-1.648;2023-07-13T03:58:23;100565.00;;;12.43;100.00
52693;BME280;68218;51.012;-1.648;2023-07-13T04:00:43;100573.88;;;12.39;100.00
52693;BME280;68218;51.012;-1.648;2023-07-13T04:03:08;100578.22;;;12.40;100.00
52693;BME280;68218;51.012;-1.648;2023-07-13T04:05:34;100576.34;;;12.40;100.00
52693;BME280;68218;51.012;-1.648;2023-07-13T04:08:01;100575.25;;;12.36;100.00
52693;BME280;68218;51.012;-1.648;2023-07-13T04:10:26;100579.53;;;12.32;100.00
52693;BME280;68218;51.012;-1.648;2023-07-13T04:12:52;100579.53;;;12.27;100.00
52693;BME280;68218;51.012;-1.648;2023-07-13T04:15:17;100586.31;;;12.29;100.00
52693;BME280;68218;51.012;-1.648;2023-07-13T04:17:42;100581.69;;;12.25;100.00
52693;BME280;68218;51.012;-1.648;2023-07-13T04:20:08;100577.66;;;12.27;100.00
52693;BME280;68218;51.012;-1.648;2023-07-13T04:22:33;100580.06;;;12.18;100.00
52693;BME280;68218;51.012;-1.648;2023-07-13T04:24:59;100590.91;;;12.29;100.00
52693;BME280;68218;51.012;-1.648;2023-07-13T04:27:24;100580.63;;;12.26;100.00
52693;BME280;68218;51.012;-1.648;2023-07-13T04:29:50;100598.47;;;12.32;100.00
52693;BME280;68218;51.012;-1.648;2023-07-13T04:32:15;100587.97;;;12.30;100.00
52693;BME280;68218;51.012;-1.648;2023-07-13T04:34:41;100590.91;;;12.24;100.00
52693;BME280;68218;51.012;-1.648;2023-07-13T04:37:06;100594.66;;;12.23;100.00
52693;BME280;68218;51.012;-1.648;2023-07-13T04:39:32;100587.38;;;12.23;100.00
52693;BME280;68218;51.012;-1.648;2023-07-13T04:41:57;100600.63;;;12.25;100.00
52693;BME280;68218;51.012;-1.648;2023-07-13T04:44:23;100603.38;;;12.35;100.00
52693;BME280;68218;51.012;-1.648;2023-07-13T04:46:48;100604.19;;;12.35;100.00
52693;BME280;68218;51.012;-1.648;2023-07-13T04:49:13;100610.16;;;12.38;100.00
52693;BME280;68218;51.012;-1.648;2023-07-13T04:51:39;100607.72;;;12.41;100.00
52693;BME280;68218;51.012;-1.648;2023-07-13T04:54:04;100608.00;;;12.40;100.00
52693;BME280;68218;51.012;-1.648;2023-07-13T04:56:30;100611.22;;;12.42;100.00
52693;BME280;68218;51.012;-1.648;2023-07-13T04:58:55;100608.81;;;12.45;100.00
52693;BME280;68218;51.012;-1.648;2023-07-13T05:01:21;100606.63;;;12.42;100.00
52693;BME280;68218;51.012;-1.648;2023-07-13T05:03:46;100613.41;;;12.40;100.00
52693;BME280;68218;51.012;-1.648;2023-07-13T05:06:12;100615.84;;;12.46;100.00
52693;BME280;68218;51.012;-1.648;2023-07-13T05:08:39;100616.69;;;12.52;100.00
52693;BME280;68218;51.012;-1.648;2023-07-13T05:11:05;100615.38;;;12.60;100.00
52693;BME280;68218;51.012;-1.648;2023-07-13T05:13:31;100617.25;;;12.64;100.00
52693;BME280;68218;51.012;-1.648;2023-07-13T05:16:04;100615.38;;;12.65;100.00
52693;BME280;68218;51.012;-1.648;2023-07-13T05:18:31;100621.34;;;12.77;100.00
52693;BME280;68218;51.012;-1.648;2023-07-13T05:21:03;100622.16;;;12.83;100.00
52693;BME280;68218;51.012;-1.648;2023-07-13T05:23:29;100618.13;;;12.80;100.00
52693;BME280;68218;51.012;-1.648;2023-07-13T05:25:56;100625.13;;;12.81;100.00
52693;BME280;68218;51.012;-1.648;2023-07-13T05:28:21;100623.00;;;12.99;100.00
52693;BME280;68218;51.012;-1.648;2023-07-13T05:30:48;100624.63;;;13.00;100.00
52693;BME280;68218;51.012;-1.648;2023-07-13T05:33:14;100624.63;;;13.00;100.00
52693;BME280;68218;51.012;-1.648;2023-07-13T05:35:40;100616.50;;;13.10;100.00
52693;BME280;68218;51.012;-1.648;2023-07-13T05:38:05;100624.38;;;13.17;100.00
52693;BME280;68218;51.012;-1.648;2023-07-13T05:40:31;100620.31;;;13.45;100.00
52693;BME280;68218;51.012;-1.648;2023-07-13T05:42:57;100620.56;;;13.69;100.00
52693;BME280;68218;51.012;-1.648;2023-07-13T05:45:22;100618.66;;;13.80;100.00
52693;BME280;68218;51.012;-1.648;2023-07-13T05:47:47;100615.66;;;13.97;100.00
52693;BME280;68218;51.012;-1.648;2023-07-13T05:50:13;100628.34;;;14.07;100.00
52693;BME280;68218;51.012;-1.648;2023-07-13T05:52:38;100624.34;;;13.83;100.00
52693;BME280;68218;51.012;-1.648;2023-07-13T05:55:04;100638.13;;;13.97;100.00
52693;BME280;68218;51.012;-1.648;2023-07-13T05:57:30;100634.63;;;14.02;100.00
52693;BME280;68218;51.012;-1.648;2023-07-13T05:59:56;100632.97;;;14.06;100.00
52693;BME280;68218;51.012;-1.648;2023-07-13T06:02:21;100642.72;;;14.12;100.00
52693;BME280;68218;51.012;-1.648;2023-07-13T06:04:47;100639.72;;;14.14;100.00
52693;BME280;68218;51.012;-1.648;2023-07-13T06:07:12;100642.44;;;14.14;100.00
52693;BME280;68218;51.012;-1.648;2023-07-13T06:09:37;100641.03;;;14.27;100.00
52693;BME280;68218;51.012;-1.648;2023-07-13T06:12:04;100647.22;;;14.37;100.00
52693;BME280;68218;51.012;-1.648;2023-07-13T06:14:30;100651.00;;;14.47;100.00
52693;BME280;68218;51.012;-1.648;2023-07-13T06:16:55;100647.44;;;14.51;100.00
52693;BME280;68218;51.012;-1.648;2023-07-13T06:19:21;100659.34;;;14.66;100.00
52693;BME280;68218;51.012;-1.648;2023-07-13T06:21:46;100667.22;;;14.67;100.00
52693;BME280;68218;51.012;-1.648;2023-07-13T06:24:12;100668.50;;;14.80;100.00
52693;BME280;68218;51.012;-1.648;2023-07-13T06:26:37;100658.69;;;14.89;100.00
52693;BME280;68218;51.012;-1.648;2023-07-13T06:29:02;100667.09;;;14.88;100.00
52693;BME280;68218;51.012;-1.648;2023-07-13T06:31:28;100657.13;;;14.73;100.00
52693;BME280;68218;51.012;-1.648;2023-07-13T06:33:53;100675.78;;;14.90;100.00
52693;BME280;68218;51.012;-1.648;2023-07-13T06:36:19;100674.81;;;15.15;100.00
52693;BME280;68218;51.012;-1.648;2023-07-13T06:38:44;100683.78;;;15.15;100.00
52693;BME280;68218;51.012;-1.648;2023-07-13T06:41:10;100680.75;;;15.22;100.00
52693;BME280;68218;51.012;-1.648;2023-07-13T06:43:35;100685.88;;;15.24;100.00
52693;BME280;68218;51.012;-1.648;2023-07-13T06:46:01;100687.41;;;15.35;100.00
52693;BME280;68218;51.012;-1.648;2023-07-13T06:48:26;100691.25;;;15.34;100.00
52693;BME280;68218;51.012;-1.648;2023-07-13T06:50:52;100684.59;;;15.50;100.00
52693;BME280;68218;51.012;-1.648;2023-07-13T06:53:19;100690.81;;;15.56;100.00
52693;BME280;68218;51.012;-1.648;2023-07-13T06:55:45;100702.72;;;15.60;98.49
52693;BME280;68218;51.012;-1.648;2023-07-13T06:58:11;100698.00;;;15.76;100.00
52693;BME280;68218;51.012;-1.648;2023-07-13T07:00:37;100706.41;;;15.74;99.24
52693;BME280;68218;51.012;-1.648;2023-07-13T07:03:02;100696.44;;;15.65;99.64
52693;BME280;68218;51.012;-1.648;2023-07-13T07:05:28;100706.81;;;15.63;100.00
52693;BME280;68218;51.012;-1.648;2023-07-13T07:07:54;100702.44;;;15.62;100.00
52693;BME280;68218;51.012;-1.648;2023-07-13T07:10:20;100713.28;;;15.67;100.00
52693;BME280;68218;51.012;-1.648;2023-07-13T07:12:46;100709.53;;;15.63;99.83
52693;BME280;68218;51.012;-1.648;2023-07-13T07:15:12;100712.72;;;15.70;100.00
52693;BME280;68218;51.012;-1.648;2023-07-13T07:17:38;100712.53;;;15.61;100.00
52693;BME280;68218;51.012;-1.648;2023-07-13T07:20:04;100721.91;;;15.74;100.00
52693;BME280;68218;51.012;-1.648;2023-07-13T07:22:30;100712.69;;;15.75;100.00
52693;BME280;68218;51.012;-1.648;2023-07-13T07:24:56;100720.78;;;15.85;100.00
52693;BME280;68218;51.012;-1.648;2023-07-13T07:27:22;100720.56;;;15.77;100.00
52693;BME280;68218;51.012;-1.648;2023-07-13T07:29:48;100725.38;;;15.85;99.73
52693;BME280;68218;51.012;-1.648;2023-07-13T07:32:13;100729.16;;;15.89;98.36
52693;BME280;68218;51.012;-1.648;2023-07-13T07:34:39;100729.50;;;15.82;97.99
52693;BME280;68218;51.012;-1.648;2023-07-13T07:37:04;100727.81;;;15.86;97.12
52693;BME280;68218;51.012;-1.648;2023-07-13T07:39:30;100732.25;;;16.06;98.83
52693;BME280;68218;51.012;-1.648;2023-07-13T07:41:56;100728.53;;;16.26;99.21
52693;BME280;68218;51.012;-1.648;2023-07-13T07:44:21;100737.22;;;16.28;98.97
52693;BME280;68218;51.012;-1.648;2023-07-13T07:46:47;100740.28;;;16.46;99.00
52693;BME280;68218;51.012;-1.648;2023-07-13T07:49:12;100738.53;;;16.55;96.42
52693;BME280;68218;51.012;-1.648;2023-07-13T07:51:38;100733.41;;;16.54;94.69
52693;BME280;68218;51.012;-1.648;2023-07-13T07:54:04;100731.44;;;17.02;96.80
52693;BME280;68218;51.012;-1.648;2023-07-13T07:56:30;100731.81;;;17.15;96.92
52693;BME280;68218;51.012;-1.648;2023-07-13T07:58:56;100733.59;;;17.06;93.27
52693;BME280;68218;51.012;-1.648;2023-07-13T08:01:21;100732.78;;;17.24;96.61
52693;BME280;68218;51.012;-1.648;2023-07-13T08:03:47;100733.88;;;17.23;95.25
52693;BME280;68218;51.012;-1.648;2023-07-13T08:06:13;100731.44;;;17.02;91.81
52693;BME280;68218;51.012;-1.648;2023-07-13T08:08:38;100733.94;;;16.99;90.91
52693;BME280;68218;51.012;-1.648;2023-07-13T08:11:05;100736.25;;;17.11;95.39
52693;BME280;68218;51.012;-1.648;2023-07-13T08:13:30;100730.50;;;17.12;95.75
52693;BME280;68218;51.012;-1.648;2023-07-13T08:15:56;100731.75;;;17.20;93.34
52693;BME280;68218;51.012;-1.648;2023-07-13T08:18:21;100732.63;;;17.34;95.92
52693;BME280;68218;51.012;-1.648;2023-07-13T08:20:47;100718.56;;;17.46;94.00
52693;BME280;68218;51.012;-1.648;2023-07-13T08:23:12;100717.00;;;17.40;93.67
52693;BME280;68218;51.012;-1.648;2023-07-13T08:25:38;100713.06;;;17.65;90.85
52693;BME280;68218;51.012;-1.648;2023-07-13T08:28:04;100714.75;;;17.94;94.05
52693;BME280;68218;51.012;-1.648;2023-07-13T08:30:30;100716.03;;;18.29;92.19
52693;BME280;68218;51.012;-1.648;2023-07-13T08:32:55;100709.44;;;18.58;91.39
52693;BME280;68218;51.012;-1.648;2023-07-13T08:35:21;100714.72;;;18.55;87.74
52693;BME280;68218;51.012;-1.648;2023-07-13T08:37:46;100708.03;;;18.33;84.81
52693;BME280;68218;51.012;-1.648;2023-07-13T08:40:13;100712.34;;;17.92;85.12
52693;BME280;68218;51.012;-1.648;2023-07-13T08:42:45;100706.38;;;17.90;85.32
52693;BME280;68218;51.012;-1.648;2023-07-13T08:45:30;100718.16;;;17.86;85.81
52693;BME280;68218;51.012;-1.648;2023-07-13T08:48:04;100706.81;;;17.78;86.20
52693;BME280;68218;51.012;-1.648;2023-07-13T08:50:38;100717.63;;;18.03;88.81
52693;BME280;68218;51.012;-1.648;2023-07-13T08:53:09;100710.84;;;18.14;91.09
52693;BME280;68218;51.012;-1.648;2023-07-13T08:55:37;100717.25;;;18.51;85.95
52693;BME280;68218;51.012;-1.648;2023-07-13T08:58:15;100718.94;;;18.61;88.27
52693;BME280;68218;51.012;-1.648;2023-07-13T09:01:04;100715.31;;;18.51;85.45
52693;BME280;68218;51.012;-1.648;2023-07-13T09:03:40;100716.63;;;18.68;88.73
52693;BME280;68218;51.012;-1.648;2023-07-13T09:06:11;100722.09;;;18.68;88.62
52693;BME280;68218;51.012;-1.648;2023-07-13T09:11:36;100719.34;;;18.40;81.65
52693;BME280;68218;51.012;-1.648;2023-07-13T09:16:51;100727.53;;;18.12;84.87
52693;BME280;68218;51.012;-1.648;2023-07-13T09:19:37;100712.41;;;18.34;90.67
52693;BME280;68218;51.012;-1.648;2023-07-13T09:22:05;100716.81;;;18.44;88.37
52693;BME280;68218;51.012;-1.648;2023-07-13T09:25:00;100715.22;;;18.29;87.21
52693;BME280;68218;51.012;-1.648;2023-07-13T09:27:36;100710.97;;;18.50;87.59
52693;BME280;68218;51.012;-1.648;2023-07-13T09:32:44;100718.31;;;18.92;86.93
52693;BME280;68218;51.012;-1.648;2023-07-13T09:35:16;100724.50;;;18.69;78.18
52693;BME280;68218;51.012;-1.648;2023-07-13T09:37:43;100721.25;;;18.81;84.08
52693;BME280;68218;51.012;-1.648;2023-07-13T09:40:38;100723.88;;;19.14;79.42
52693;BME280;68218;51.012;-1.648;2023-07-13T09:42:59;100722.88;;;19.33;78.91
52693;BME280;68218;51.012;-1.648;2023-07-13T09:45:30;100725.13;;;18.94;76.99
52693;BME280;68218;51.012;-1.648;2023-07-13T09:48:15;100722.56;;;19.34;78.15
52693;BME280;68218;51.012;-1.648;2023-07-13T09:50:42;100721.47;;;18.99;74.36
52693;BME280;68218;51.012;-1.648;2023-07-13T09:53:14;100720.22;;;19.64;74.34
52693;BME280;68218;51.012;-1.648;2023-07-13T09:55:41;100721.16;;;19.82;73.22
52693;BME280;68218;51.012;-1.648;2023-07-13T09:58:12;100726.69;;;19.91;79.12
52693;BME280;68218;51.012;-1.648;2023-07-13T10:00:38;100728.22;;;20.06;77.39
52693;BME280;68218;51.012;-1.648;2023-07-13T10:03:18;100723.81;;;19.96;74.12
52693;BME280;68218;51.012;-1.648;2023-07-13T10:05:46;100739.84;;;20.43;77.80
52693;BME280;68218;51.012;-1.648;2023-07-13T10:08:26;100736.41;;;20.68;80.97
52693;BME280;68218;51.012;-1.648;2023-07-13T10:14:31;100732.75;;;20.10;73.42
52693;BME280;68218;51.012;-1.648;2023-07-13T10:16:33;100733.72;;;20.54;79.17
52693;BME280;68218;51.012;-1.648;2023-07-13T10:19:02;100733.22;;;20.44;76.09
52693;BME280;68218;51.012;-1.648;2023-07-13T10:21:39;100738.94;;;20.65;74.02
52693;BME280;68218;51.012;-1.648;2023-07-13T10:24:11;100733.22;;;21.10;67.96
52693;BME280;68218;51.012;-1.648;2023-07-13T10:26:46;100733.06;;;21.32;74.80
52693;BME280;68218;51.012;-1.648;2023-07-13T10:29:14;100734.19;;;21.23;68.54
52693;BME280;68218;51.012;-1.648;2023-07-13T10:31:41;100730.13;;;21.81;68.56
52693;BME280;68218;51.012;-1.648;2023-07-13T10:34:10;100735.00;;;21.67;71.95
52693;BME280;68218;51.012;-1.648;2023-07-13T10:36:43;100732.91;;;21.64;71.25
52693;BME280;68218;51.012;-1.648;2023-07-13T10:39:27;100725.25;;;21.96;68.56
52693;BME280;68218;51.012;-1.648;2023-07-13T10:42:05;100720.50;;;22.61;62.70
52693;BME280;68218;51.012;-1.648;2023-07-13T10:44:34;100719.78;;;22.94;60.18
52693;BME280;68218;51.012;-1.648;2023-07-13T10:47:16;100715.16;;;22.17;68.30
52693;BME280;68218;51.012;-1.648;2023-07-13T10:49:43;100732.25;;;21.76;70.26
52693;BME280;68218;51.012;-1.648;2023-07-13T10:55:31;100736.75;;;20.44;68.42
52693;BME280;68218;51.012;-1.648;2023-07-13T10:58:22;100727.31;;;20.19;72.12
52693;BME280;68218;51.012;-1.648;2023-07-13T11:03:34;100741.56;;;19.98;67.13
52693;BME280;68218;51.012;-1.648;2023-07-13T11:06:33;100747.38;;;20.06;74.08
52693;BME280;68218;51.012;-1.648;2023-07-13T11:09:34;100745.75;;;20.36;66.92
52693;BME280;68218;51.012;-1.648;2023-07-13T11:12:00;100736.03;;;20.21;71.82
52693;BME280;68218;51.012;-1.648;2023-07-13T11:14:31;100735.25;;;19.98;75.98
52693;BME280;68218;51.012;-1.648;2023-07-13T11:23:17;100761.03;;;18.18;81.53
52693;BME280;68218;51.012;-1.648;2023-07-13T11:25:43;100761.06;;;17.99;86.17
52693;BME280;68218;51.012;-1.648;2023-07-13T11:30:41;100764.44;;;17.58;91.48
52693;BME280;68218;51.012;-1.648;2023-07-13T11:36:00;100762.41;;;17.31;90.85
52693;BME280;68218;51.012;-1.648;2023-07-13T11:41:02;100758.53;;;17.70;91.44
52693;BME280;68218;51.012;-1.648;2023-07-13T11:43:29;100758.03;;;18.01;92.48
52693;BME280;68218;51.012;-1.648;2023-07-13T11:45:54;100745.66;;;18.36;91.49
52693;BME280;68218;51.012;-1.648;2023-07-13T11:48:21;100743.13;;;18.40;85.74
52693;BME280;68218;51.012;-1.648;2023-07-13T11:50:59;100747.50;;;18.68;87.46
52693;BME280;68218;51.012;-1.648;2023-07-13T11:53:28;100733.03;;;18.68;83.67
52693;BME280;68218;51.012;-1.648;2023-07-13T11:55:54;100737.25;;;19.02;87.15
52693;BME280;68218;51.012;-1.648;2023-07-13T11:58:25;100731.31;;;19.22;85.89
52693;BME280;68218;51.012;-1.648;2023-07-13T12:00:52;100739.69;;;19.40;83.42
52693;BME280;68218;51.012;-1.648;2023-07-13T12:03:21;100731.16;;;19.05;76.36
52693;BME280;68218;51.012;-1.648;2023-07-13T12:05:57;100738.47;;;18.96;79.80
52693;BME280;68218;51.012;-1.648;2023-07-13T12:08:23;100748.56;;;18.81;85.41
52693;BME280;68218;51.012;-1.648;2023-07-13T12:10:56;100731.22;;;18.49;82.67
52693;BME280;68218;51.012;-1.648;2023-07-13T12:13:22;100733.13;;;18.77;87.01
52693;BME280;68218;51.012;-1.648;2023-07-13T12:15:48;100731.56;;;20.02;81.94
52693;BME280;68218;51.012;-1.648;2023-07-13T12:18:19;100729.47;;;19.99;81.83
52693;BME280;68218;51.012;-1.648;2023-07-13T12:20:46;100725.53;;;19.83;78.84
52693;BME280;68218;51.012;-1.648;2023-07-13T12:23:29;100720.91;;;19.92;80.88
52693;BME280;68218;51.012;-1.648;2023-07-13T12:25:57;100715.50;;;19.56;74.25
52693;BME280;68218;51.012;-1.648;2023-07-13T12:28:32;100711.63;;;19.57;81.00
52693;BME280;68218;51.012;-1.648;2023-07-13T12:30:59;100710.56;;;19.67;75.00
52693;BME280;68218;51.012;-1.648;2023-07-13T12:33:28;100701.50;;;20.11;75.97
52693;BME280;68218;51.012;-1.648;2023-07-13T12:35:54;100702.84;;;20.71;68.14
52693;BME280;68218;51.012;-1.648;2023-07-13T12:38:21;100706.69;;;20.21;75.51
52693;BME280;68218;51.012;-1.648;2023-07-13T12:40:50;100693.44;;;20.15;79.44
52693;BME280;68218;51.012;-1.648;2023-07-13T12:43:17;100695.19;;;20.02;71.53
52693;BME280;68218;51.012;-1.648;2023-07-13T12:46:18;100703.09;;;20.04;74.69
52693;BME280;68218;51.012;-1.648;2023-07-13T12:48:48;100701.78;;;20.41;78.23
52693;BME280;68218;51.012;-1.648;2023-07-13T12:51:14;100693.97;;;20.74;73.42
52693;BME280;68218;51.012;-1.648;2023-07-13T12:53:42;100685.47;;;21.02;70.22
52693;BME280;68218;51.012;-1.648;2023-07-13T12:56:18;100703.34;;;20.73;70.25
52693;BME280;68218;51.012;-1.648;2023-07-13T12:58:45;100701.31;;;20.08;68.24
52693;BME280;68218;51.012;-1.648;2023-07-13T13:01:14;100706.53;;;19.87;67.40
52693;BME280;68218;51.012;-1.648;2023-07-13T13:03:48;100710.59;;;20.29;67.24
52693;BME280;68218;51.012;-1.648;2023-07-13T13:08:45;100698.38;;;19.73;72.24
52693;BME280;68218;51.012;-1.648;2023-07-13T13:11:11;100710.44;;;19.49;74.57
52693;BME280;68218;51.012;-1.648;2023-07-13T13:13:36;100721.09;;;19.28;75.94